Flight Track Log - Related Links

Times and Time Zones

All times are in EDT time to prevent confusion due to time zone crossing. See the EJA941 flight status page for this flight to view local times or setup timezone preferences in your user account.

Time Position Orientation Groundspeed Altitude Reporting Facility
EDT Latitude Longitude Course Direction KTS MPH feet Rate Location/Type
Thu 01:07:55 PM 30.3089 -89.0589 213° Southwest 255 293 6,500  Level Houston Center
Thu 01:08:57 PM 30.2867 -89.1464 254° West 282 325 9,800 2,855 Climbing Houston Center
Thu 01:09:59 PM 30.2653 -89.2417 255° West 299 344 12,400 3,435 Climbing Houston Center
Thu 01:11:01 PM 30.2378 -89.3578 255° West 311 358 16,900 3,435 Climbing Houston Center
Thu 01:12:00 PM 30.2170 -89.7654 254° West  Level FlightAware Approximate
Thu 01:12:03 PM 30.2158 -89.4500 255° West 299 344 19,500  Level Houston Center
Thu 01:13:05 PM 30.1922 -89.5444 254° West 304 350 21,600 2,032 Climbing Houston Center
Thu 01:14:07 PM 30.1686 -89.6450 255° West 317 365 23,700 1,984 Climbing Houston Center
Thu 01:15:09 PM 30.1422 -89.7483 254° West 329 379 25,700 1,839 Climbing Houston Center
Thu 01:16:11 PM 30.1175 -89.8558 255° West 340 391 27,500 1,065 Climbing Houston Center
Thu 01:17:13 PM 30.1139 -89.9728 268° West 375 432 27,900 242 Climbing Houston Center
Thu 01:18:15 PM 30.0842 -90.1000 255° West 407 468 28,000 48 Climbing Houston Center
Thu 01:19:17 PM 30.0372 -90.2653 252° West 449 517 28,000  Level Houston Center
Thu 01:20:19 PM 29.9958 -90.4089 252° West 467 537 28,000  Level Houston Center
Thu 01:21:21 PM 29.9506 -90.5575 251° West 487 560 28,000  Level Houston Center
Thu 01:22:23 PM 29.9061 -90.7111 252° West 501 577 28,000  Level Houston Center
Thu 01:23:25 PM 29.8686 -90.8664 254° West 504 580 28,000  Level Houston Center
Thu 01:24:27 PM 29.8292 -91.0208 254° West 504 580 28,000  Level Houston Center
Thu 01:25:29 PM 29.7819 -91.2064 254° West 505 581 28,000  Level Houston Center
Thu 01:26:31 PM 29.7419 -91.3619 254° West 507 583 28,000  Level Houston Center
Thu 01:27:33 PM 29.7025 -91.5186 254° West 509 586 28,000  Level Houston Center
Thu 01:28:35 PM 29.6628 -91.6750 254° West 510 587 28,000  Level Houston Center
Thu 01:29:37 PM 29.6236 -91.8222 253° West 508 585 28,000  Level Houston Center
Thu 01:30:40 PM 29.5756 -92.0056 253° West 500 575 28,000  Level Houston Center
Thu 01:31:42 PM 29.5353 -92.1561 253° West 496 571 28,000  Level Houston Center
Thu 01:32:44 PM 29.4958 -92.3075 253° West 495 570 28,000  Level Houston Center
Thu 01:33:46 PM 29.4592 -92.4608 255° West 497 572 28,000  Level Houston Center
Thu 01:34:48 PM 29.4622 -92.6169 271° West 495 570 28,000  Level Houston Center
Thu 01:35:50 PM 29.4714 -92.7722 274° West 489 563 28,000  Level Houston Center
Thu 01:36:52 PM 29.4789 -92.9614 273° West 492 566 28,000  Level Houston Center
Thu 01:37:54 PM 29.4864 -93.1194 273° West 495 570 28,000  Level Houston Center
Thu 01:38:56 PM 29.4922 -93.2769 272° West 494 568 28,000 -144 Level Houston Center
Thu 01:39:59 PM 29.4989 -93.4356 273° West 498 573 27,700 -1,344 Descending Houston Center
Thu 01:41:01 PM 29.5050 -93.5939 273° West 496 571 25,200 -2,274 Descending Houston Center
Thu 01:42:03 PM 29.5117 -93.7431 273° West 475 547 23,000 -1,935 Descending Houston Center
Thu 01:43:05 PM 29.5158 -93.8717 272° West 414 476 21,200 -2,207 Descending Houston Center
Thu 01:43:30 PM 29.5175 -93.9508 271° West 396 456 19,800 -2,727 Descending Houston Center
Thu 01:44:00 PM 29.5217 -94.0103 275° West 391 450 18,700 -2,152 Descending Houston Center
Thu 01:45:02 PM 29.5258 -94.1347 272° West 368 423 16,500 -2,098 Descending Houston Center
Thu 01:46:03 PM 29.5286 -94.2450 272° West 359 413 14,400 -1,721 Descending Houston Center
Thu 01:47:04 PM 29.5394 -94.3542 277° West 305 351 13,000 -1,268 Descending Houston Center
Thu 01:48:06 PM 29.5797 -94.4425 298° West 300 345 11,800 -1,366 Descending Houston Center
Thu 01:49:07 PM 29.6108 -94.5228 294° West 283 326 10,200 -1,869 Descending Houston Center
Thu 01:50:08 PM 29.6461 -94.6047 296° West 268 308 8,000 -1,574 Descending Houston Center
Thu 01:51:09 PM 29.6861 -94.6719 304° West 249 287 7,000 -492 Descending Houston Center
Thu 01:52:10 PM 29.7364 -94.7136 324° Northwest 216 249 7,000  Level Houston Center
Thu 01:53:12 PM 29.7886 -94.7528 327° Northwest 222 255 7,000  Level Houston Center
Thu 01:54:13 PM 29.8464 -94.7864 333° Northwest 219 252 7,000  Level Houston Center
Thu 01:54:28 PM 29.8589 -94.7881 353° North 224 258 7,000  Level Houston Center
Thu 01:55:14 PM 29.9072 -94.7861 North 221 254 7,000  Level Houston Center
Thu 01:55:30 PM 29.9189 -94.7847 North 219 252 7,000 -194 Level Houston Center
Thu 01:56:16 PM 29.9636 -94.7814 North 198 228 6,800 -381 Descending Houston Center
Thu 01:56:33 PM 29.9739 -94.7789 12° North 197 227 6,600 -787 Descending Houston Center
Thu 01:57:17 PM 29.9928 -94.8233 296° West 200 230 6,000 -581 Descending Houston Center
Thu 01:57:35 PM 29.9928 -94.8286 270° West 194 223 6,000  Level Houston Center
Thu 01:58:18 PM 29.9928 -94.8886 270° West 200 230 6,000  Level Houston Center
Thu 01:58:37 PM 29.9933 -94.9058 272° West 202 232 6,000  Level Houston Center
Thu 01:59:19 PM 29.9925 -94.9514 269° West 203 234 6,000 -97 Level Houston Center
Thu 01:59:39 PM 29.9936 -94.9706 274° West 202 232 5,900 -689 Descending Houston Center
Thu 02:00:20 PM 29.9925 -95.0189 268° West 210 242 5,300 -871 Descending Houston Center
Thu 02:00:41 PM 29.9931 -95.0383 272° West 209 241 5,000 -1,180 Descending Houston Center
Thu 02:01:21 PM 29.9931 -95.0914 270° West 207 238 4,100 -1,065 Descending Houston Center
Thu 02:01:43 PM 29.9931 -95.1036 270° West 207 238 3,900 -1,082 Descending Houston Center
Thu 02:02:22 PM 29.9928 -95.1564 270° West 206 237 3,000 -1,065 Descending Houston Center
Thu 02:02:45 PM 29.9936 -95.1689 274° West 206 237 2,800 -787 Descending Houston Center
Thu 02:03:23 PM 29.9933 -95.2094 270° West 149 171 2,200 -968 Descending Houston Center
Thu 02:03:47 PM 29.9931 -95.2286 269° West 174 200 1,800 -871 Descending Houston Center
Thu 02:04:25 PM 29.9919 -95.2603 268° West 162 186 1,300 -871 Descending Houston Center
Thu 02:04:49 PM 29.9931 -95.2786 274° West 163 188 900 -800 Descending Houston Center
Thu 02:05:25 PM 29.9939 -95.3058 272° West 131 151 500 -571 Descending Houston Center
Thu 02:05:52 PM 29.9931 -95.3300 268° West 156 180 300 -444 Descending Houston Center
Thu 02:07:00 PM 29.9833 -95.3333 311° West  Level FlightAware Approximate

Login

Don't have an account? Register now (free) for customized features, flight alerts, and more!